(°C)
(°C)
-2°
-2°
-2°
-2°
-2°
-2°
-2°
ΑΒΑ
ΑΒΑ
Α
Α
ΑΝΑ
ΑΝΑ
ΑΝΑ
(χλμ / ω)
6-12
5-11
3-9
2-8
2-7
2-6
2-7
(χιλιοστά)
0
0
0
0
0
0
0
(%)
0
0
0
0
0
0
0

Ανύψωση ήλιου

/ -26.9°
sun-icon
UV 2
07:36
18:22
Αύξων αμφίκυρτος (φάση σελήνης) (132°)
17:24
02:05

METAR για 51.02°Β 71.47°Α (UACC)

Χρόνος Συνθήκες Θερμοκρασία/
Σημείο δρόσου
Άνεμος Ορατότητα Καιρός Νέφη Πίεση Αλλαγή Ανεπεξέργαστο
VFR 3°C / -4°C 50º 8kt >10km - Clouds and Visibility OK 1025 No Significant change. Runway 04: Clear and dry, , friction coefficient 0.70. UACC 161430Z 05004MPS CAVOK 03/M04 Q1025 R04/0///70 NOSIG RMK QFE737/0983
VFR 5°C / -4°C 50º 8kt >10km - Clouds and Visibility OK 1025 No Significant change. Runway 04: Clear and dry, , friction coefficient 0.70. UACC 161400Z 05004MPS CAVOK 05/M04 Q1025 R04/0///70 NOSIG RMK QFE737/0983
VFR 7°C / -3°C 40º 6kt >10km - Clouds and Visibility OK 1025 No Significant change. Runway 04: Clear and dry, , friction coefficient 0.70. UACC 161330Z 04003MPS CAVOK 07/M03 Q1025 R04/0///70 NOSIG RMK QFE737/0983
VFR 7°C / -3°C 30º 4kt >10km - Clouds and Visibility OK 1025 No Significant change. Runway 04: Clear and dry, , friction coefficient 0.70. UACC 161300Z 03002MPS CAVOK 07/M03 Q1025 R04/0///70 NOSIG RMK QFE737/0983
VFR 8°C / -2°C 20º variable 340º to 040º 4kt >10km - Clouds and Visibility OK 1025 No Significant change. Runway 04: Clear and dry, , friction coefficient 0.70. UACC 161230Z 02002MPS 340V040 CAVOK 08/M02 Q1025 R04/0///70 NOSIG RMK QFE737/0983
VFR 10°C / -2°C 60º 6kt >10km - Clouds and Visibility OK 1025 No Significant change. Runway 04: Clear and dry, , friction coefficient 0.70. UACC 161200Z 06003MPS CAVOK 10/M02 Q1025 R04/0///70 NOSIG RMK QFE737/0983
VFR 10°C / -2°C 70º 6kt >10km - Clouds and Visibility OK 1025 No Significant change. Runway 04: Clear and dry, , friction coefficient 0.70. UACC 161130Z 07003MPS CAVOK 10/M02 Q1025 R04/0///70 NOSIG RMK QFE737/0982
VFR 11°C / -2°C 70º 8kt >10km - Clouds and Visibility OK 1025 No Significant change. Runway 04: Clear and dry, , friction coefficient 0.70. UACC 161100Z 07004MPS CAVOK 11/M02 Q1025 R04/0///70 NOSIG RMK QFE737/0982
VFR 11°C / -2°C 70º 6kt >10km - Clouds and Visibility OK 1024 No Significant change. Runway 04: Clear and dry, , friction coefficient 0.70. UACC 161030Z 07003MPS CAVOK 11/M02 Q1024 R04/0///70 NOSIG RMK QFE737/0982
VFR 11°C / -2°C 60º variable 020º to 100º 6kt >10km - Clouds and Visibility OK 1025 No Significant change. Runway 04: Clear and dry, , friction coefficient 0.70. UACC 161000Z 06003MPS 020V100 CAVOK 11/M02 Q1025 R04/0///70 NOSIG RMK QFE737/0983
VFR 11°C / -2°C 80º variable 040º to 110º 6kt >10km - Clouds and Visibility OK 1025 No Significant change. Runway 04: Clear and dry, , friction coefficient 0.70. UACC 160930Z 08003MPS 040V110 CAVOK 11/M02 Q1025 R04/0///70 NOSIG RMK QFE737/0983
VFR 11°C / -2°C 60º variable 030º to 090º 8kt >10km - Clouds and Visibility OK 1025 No Significant change. Runway 04: Clear and dry, , friction coefficient 0.70. UACC 160900Z 06004MPS 030V090 CAVOK 11/M02 Q1025 R04/0///70 NOSIG RMK QFE737/0983
VFR 11°C / -2°C 80º variable 030º to 110º 8kt >10km - Clouds and Visibility OK 1025 No Significant change. Runway 04: Clear and dry, , friction coefficient 0.70. UACC 160830Z 08004MPS 030V110 CAVOK 11/M02 Q1025 R04/0///70 NOSIG RMK QFE737/0983
VFR 10°C / -2°C 80º variable 030º to 130º 8kt >10km - Clouds and Visibility OK 1025 No Significant change. Runway 04: Clear and dry, , friction coefficient 0.70. UACC 160800Z 08004MPS 030V130 CAVOK 10/M02 Q1025 R04/0///70 NOSIG RMK QFE737/0983
VFR 10°C / -2°C 100º variable 070º to 130º 10kt >10km - Clouds and Visibility OK 1026 No Significant change. Runway 04: Clear and dry, , friction coefficient 0.70. UACC 160730Z 10005MPS 070V130 CAVOK 10/M02 Q1026 R04/0///70 NOSIG RMK QFE737/0983
VFR 10°C / -1°C 90º variable 070º to 130º 10kt >10km - Clouds and Visibility OK 1026 No Significant change. Runway 04: Clear and dry, , friction coefficient 0.70. UACC 160700Z 09005MPS 070V130 CAVOK 10/M01 Q1026 R04/0///70 NOSIG RMK QFE738/0984
VFR 9°C / -2°C 90º 10kt >10km - Clouds and Visibility OK 1026 No Significant change. Runway 04: Clear and dry, , friction coefficient 0.70. UACC 160630Z 09005MPS CAVOK 09/M02 Q1026 R04/0///70 NOSIG RMK QFE738/0984
VFR 9°C / -1°C 90º 10kt >10km - Clouds and Visibility OK 1027 No Significant change. Runway 04: Clear and dry, , friction coefficient 0.70. UACC 160600Z 09005MPS CAVOK 09/M01 Q1027 R04/0///70 NOSIG RMK QFE738/0985
VFR 8°C / -1°C 80º 8kt >10km - Clouds and Visibility OK 1027 No Significant change. Runway 04: Clear and dry, , friction coefficient 0.70. UACC 160530Z 08004MPS CAVOK 08/M01 Q1027 R04/0///70 NOSIG RMK QFE739/0985
VFR 6°C / 0°C 70º 8kt >10km - Clouds and Visibility OK 1028 No Significant change. Runway 04: Clear and dry, , friction coefficient 0.70. UACC 160500Z 07004MPS CAVOK 06/M00 Q1028 R04/0///70 NOSIG RMK QFE739/0985
VFR 4°C / 0°C 70º 8kt >10km - Clouds and Visibility OK 1028 No Significant change. Runway 04: Clear and dry, , friction coefficient 0.70. UACC 160430Z 07004MPS CAVOK 04/M00 Q1028 R04/0///70 NOSIG RMK QFE739/0985
VFR 3°C / 0°C 80º 8kt >10km - Clouds and Visibility OK 1028 No Significant change. Runway 04: Clear and dry, , friction coefficient 0.70. UACC 160400Z 08004MPS CAVOK 03/M00 Q1028 R04/0///70 NOSIG RMK QFE739/0986
VFR 1°C / -1°C 60º 6kt >10km - Clouds and Visibility OK 1028 No Significant change. Runway 04: Clear and dry, , friction coefficient 0.70. UACC 160330Z 06003MPS CAVOK 01/M01 Q1028 R04/0///70 NOSIG RMK QFE739/0986
VFR 0°C / -2°C 20º variable 340º to 040º 4kt >10km - Clouds and Visibility OK 1028 No Significant change. Runway 04: Clear and dry, , friction coefficient 0.70. UACC 160300Z 02002MPS 340V040 CAVOK 00/M02 Q1028 R04/0///70 NOSIG RMK QFE739/0986

VFR

3°C / -4°C

[Περισσότερο]
Άνεμος 50º 8kt
Ορατότητα >10km
Καιρός -
Νέφη Clouds and Visibility OK
Πίεση 1025
Αλλαγή No Significant change. Runway 04: Clear and dry, , friction coefficient 0.70.
Ανεπεξέργαστο UACC 161430Z 05004MPS CAVOK 03/M04 Q1025 R04/0///70 NOSIG RMK QFE737/0983

VFR

5°C / -4°C

[Περισσότερο]
Άνεμος 50º 8kt
Ορατότητα >10km
Καιρός -
Νέφη Clouds and Visibility OK
Πίεση 1025
Αλλαγή No Significant change. Runway 04: Clear and dry, , friction coefficient 0.70.
Ανεπεξέργαστο UACC 161400Z 05004MPS CAVOK 05/M04 Q1025 R04/0///70 NOSIG RMK QFE737/0983

VFR

7°C / -3°C

[Περισσότερο]
Άνεμος 40º 6kt
Ορατότητα >10km
Καιρός -
Νέφη Clouds and Visibility OK
Πίεση 1025
Αλλαγή No Significant change. Runway 04: Clear and dry, , friction coefficient 0.70.
Ανεπεξέργαστο UACC 161330Z 04003MPS CAVOK 07/M03 Q1025 R04/0///70 NOSIG RMK QFE737/0983

VFR

7°C / -3°C

[Περισσότερο]
Άνεμος 30º 4kt
Ορατότητα >10km
Καιρός -
Νέφη Clouds and Visibility OK
Πίεση 1025
Αλλαγή No Significant change. Runway 04: Clear and dry, , friction coefficient 0.70.
Ανεπεξέργαστο UACC 161300Z 03002MPS CAVOK 07/M03 Q1025 R04/0///70 NOSIG RMK QFE737/0983

VFR

8°C / -2°C

[Περισσότερο]
Άνεμος 20º variable 340º to 040º 4kt
Ορατότητα >10km
Καιρός -
Νέφη Clouds and Visibility OK
Πίεση 1025
Αλλαγή No Significant change. Runway 04: Clear and dry, , friction coefficient 0.70.
Ανεπεξέργαστο UACC 161230Z 02002MPS 340V040 CAVOK 08/M02 Q1025 R04/0///70 NOSIG RMK QFE737/0983

VFR

10°C / -2°C

[Περισσότερο]
Άνεμος 60º 6kt
Ορατότητα >10km
Καιρός -
Νέφη Clouds and Visibility OK
Πίεση 1025
Αλλαγή No Significant change. Runway 04: Clear and dry, , friction coefficient 0.70.
Ανεπεξέργαστο UACC 161200Z 06003MPS CAVOK 10/M02 Q1025 R04/0///70 NOSIG RMK QFE737/0983

VFR

10°C / -2°C

[Περισσότερο]
Άνεμος 70º 6kt
Ορατότητα >10km
Καιρός -
Νέφη Clouds and Visibility OK
Πίεση 1025
Αλλαγή No Significant change. Runway 04: Clear and dry, , friction coefficient 0.70.
Ανεπεξέργαστο UACC 161130Z 07003MPS CAVOK 10/M02 Q1025 R04/0///70 NOSIG RMK QFE737/0982

VFR

11°C / -2°C

[Περισσότερο]
Άνεμος 70º 8kt
Ορατότητα >10km
Καιρός -
Νέφη Clouds and Visibility OK
Πίεση 1025
Αλλαγή No Significant change. Runway 04: Clear and dry, , friction coefficient 0.70.
Ανεπεξέργαστο UACC 161100Z 07004MPS CAVOK 11/M02 Q1025 R04/0///70 NOSIG RMK QFE737/0982

VFR

11°C / -2°C

[Περισσότερο]
Άνεμος 70º 6kt
Ορατότητα >10km
Καιρός -
Νέφη Clouds and Visibility OK
Πίεση 1024
Αλλαγή No Significant change. Runway 04: Clear and dry, , friction coefficient 0.70.
Ανεπεξέργαστο UACC 161030Z 07003MPS CAVOK 11/M02 Q1024 R04/0///70 NOSIG RMK QFE737/0982

VFR

11°C / -2°C

[Περισσότερο]
Άνεμος 60º variable 020º to 100º 6kt
Ορατότητα >10km
Καιρός -
Νέφη Clouds and Visibility OK
Πίεση 1025
Αλλαγή No Significant change. Runway 04: Clear and dry, , friction coefficient 0.70.
Ανεπεξέργαστο UACC 161000Z 06003MPS 020V100 CAVOK 11/M02 Q1025 R04/0///70 NOSIG RMK QFE737/0983

VFR

11°C / -2°C

[Περισσότερο]
Άνεμος 80º variable 040º to 110º 6kt
Ορατότητα >10km
Καιρός -
Νέφη Clouds and Visibility OK
Πίεση 1025
Αλλαγή No Significant change. Runway 04: Clear and dry, , friction coefficient 0.70.
Ανεπεξέργαστο UACC 160930Z 08003MPS 040V110 CAVOK 11/M02 Q1025 R04/0///70 NOSIG RMK QFE737/0983

VFR

11°C / -2°C

[Περισσότερο]
Άνεμος 60º variable 030º to 090º 8kt
Ορατότητα >10km
Καιρός -
Νέφη Clouds and Visibility OK
Πίεση 1025
Αλλαγή No Significant change. Runway 04: Clear and dry, , friction coefficient 0.70.
Ανεπεξέργαστο UACC 160900Z 06004MPS 030V090 CAVOK 11/M02 Q1025 R04/0///70 NOSIG RMK QFE737/0983

VFR

11°C / -2°C

[Περισσότερο]
Άνεμος 80º variable 030º to 110º 8kt
Ορατότητα >10km
Καιρός -
Νέφη Clouds and Visibility OK
Πίεση 1025
Αλλαγή No Significant change. Runway 04: Clear and dry, , friction coefficient 0.70.
Ανεπεξέργαστο UACC 160830Z 08004MPS 030V110 CAVOK 11/M02 Q1025 R04/0///70 NOSIG RMK QFE737/0983

VFR

10°C / -2°C

[Περισσότερο]
Άνεμος 80º variable 030º to 130º 8kt
Ορατότητα >10km
Καιρός -
Νέφη Clouds and Visibility OK
Πίεση 1025
Αλλαγή No Significant change. Runway 04: Clear and dry, , friction coefficient 0.70.
Ανεπεξέργαστο UACC 160800Z 08004MPS 030V130 CAVOK 10/M02 Q1025 R04/0///70 NOSIG RMK QFE737/0983

VFR

10°C / -2°C

[Περισσότερο]
Άνεμος 100º variable 070º to 130º 10kt
Ορατότητα >10km
Καιρός -
Νέφη Clouds and Visibility OK
Πίεση 1026
Αλλαγή No Significant change. Runway 04: Clear and dry, , friction coefficient 0.70.
Ανεπεξέργαστο UACC 160730Z 10005MPS 070V130 CAVOK 10/M02 Q1026 R04/0///70 NOSIG RMK QFE737/0983

VFR

10°C / -1°C

[Περισσότερο]
Άνεμος 90º variable 070º to 130º 10kt
Ορατότητα >10km
Καιρός -
Νέφη Clouds and Visibility OK
Πίεση 1026
Αλλαγή No Significant change. Runway 04: Clear and dry, , friction coefficient 0.70.
Ανεπεξέργαστο UACC 160700Z 09005MPS 070V130 CAVOK 10/M01 Q1026 R04/0///70 NOSIG RMK QFE738/0984

VFR

9°C / -2°C

[Περισσότερο]
Άνεμος 90º 10kt
Ορατότητα >10km
Καιρός -
Νέφη Clouds and Visibility OK
Πίεση 1026
Αλλαγή No Significant change. Runway 04: Clear and dry, , friction coefficient 0.70.
Ανεπεξέργαστο UACC 160630Z 09005MPS CAVOK 09/M02 Q1026 R04/0///70 NOSIG RMK QFE738/0984

VFR

9°C / -1°C

[Περισσότερο]
Άνεμος 90º 10kt
Ορατότητα >10km
Καιρός -
Νέφη Clouds and Visibility OK
Πίεση 1027
Αλλαγή No Significant change. Runway 04: Clear and dry, , friction coefficient 0.70.
Ανεπεξέργαστο UACC 160600Z 09005MPS CAVOK 09/M01 Q1027 R04/0///70 NOSIG RMK QFE738/0985

VFR

8°C / -1°C

[Περισσότερο]
Άνεμος 80º 8kt
Ορατότητα >10km
Καιρός -
Νέφη Clouds and Visibility OK
Πίεση 1027
Αλλαγή No Significant change. Runway 04: Clear and dry, , friction coefficient 0.70.
Ανεπεξέργαστο UACC 160530Z 08004MPS CAVOK 08/M01 Q1027 R04/0///70 NOSIG RMK QFE739/0985

VFR

6°C / 0°C

[Περισσότερο]
Άνεμος 70º 8kt
Ορατότητα >10km
Καιρός -
Νέφη Clouds and Visibility OK
Πίεση 1028
Αλλαγή No Significant change. Runway 04: Clear and dry, , friction coefficient 0.70.
Ανεπεξέργαστο UACC 160500Z 07004MPS CAVOK 06/M00 Q1028 R04/0///70 NOSIG RMK QFE739/0985

VFR

4°C / 0°C

[Περισσότερο]
Άνεμος 70º 8kt
Ορατότητα >10km
Καιρός -
Νέφη Clouds and Visibility OK
Πίεση 1028
Αλλαγή No Significant change. Runway 04: Clear and dry, , friction coefficient 0.70.
Ανεπεξέργαστο UACC 160430Z 07004MPS CAVOK 04/M00 Q1028 R04/0///70 NOSIG RMK QFE739/0985

VFR

3°C / 0°C

[Περισσότερο]
Άνεμος 80º 8kt
Ορατότητα >10km
Καιρός -
Νέφη Clouds and Visibility OK
Πίεση 1028
Αλλαγή No Significant change. Runway 04: Clear and dry, , friction coefficient 0.70.
Ανεπεξέργαστο UACC 160400Z 08004MPS CAVOK 03/M00 Q1028 R04/0///70 NOSIG RMK QFE739/0986

VFR

1°C / -1°C

[Περισσότερο]
Άνεμος 60º 6kt
Ορατότητα >10km
Καιρός -
Νέφη Clouds and Visibility OK
Πίεση 1028
Αλλαγή No Significant change. Runway 04: Clear and dry, , friction coefficient 0.70.
Ανεπεξέργαστο UACC 160330Z 06003MPS CAVOK 01/M01 Q1028 R04/0///70 NOSIG RMK QFE739/0986

VFR

0°C / -2°C

[Περισσότερο]
Άνεμος 20º variable 340º to 040º 4kt
Ορατότητα >10km
Καιρός -
Νέφη Clouds and Visibility OK
Πίεση 1028
Αλλαγή No Significant change. Runway 04: Clear and dry, , friction coefficient 0.70.
Ανεπεξέργαστο UACC 160300Z 02002MPS 340V040 CAVOK 00/M02 Q1028 R04/0///70 NOSIG RMK QFE739/0986

TAF για 51.02°Β 71.47°Α (UACC)

From till


Maximum Temperature 12ºC on . Minimum Temperature -3ºC on .
From till Wind 70º 8kt. Visibility 10km or more. Scattered Clouds 3000ft.
Becoming from till Wind variable 4kt. Visibility 10km or more. Scattered Clouds 3000ft.
Becoming from till Wind variable 4kt. Visibility 3100m. Mist . Few Clouds 500ft. Broken Clouds 1100ft.
Temporarly from till Visibility 305.775m. Light Snow freezing Fog . Obscured Sky.
From till Wind 240º 6kt. Visibility 10km or more. Scattered Clouds 2000ft.

Ανεπεξέργαστο: TAF UACC 161111Z 1612/1712 07004MPS 9999 SCT030 TX12/1709Z TNM03/1701Z BECMG 1615/1617 VRB02MPS BECMG 1618/1620 3100 BR FEW005 BKN011 TEMPO 1620/1703 0300 -SN FZFG VV002 FM170300 24003MPS 9999 SCT020

Τρέχουσες εικόνες δορυφόρου και βροχής για 51.02°Β 71.47°Α

Η ένδειξη τοποθεσίας τοποθετείται στο 51.02°Β 71.47°Α. [Περισσότερο]

Οι δορυφορικές εικόνες σε πραγματικό χρόνο συνδυάζουν ορατό φως κατά τη διάρκεια της ημέρας με υπέρυθρη ακτινοβολία κατά τη διάρκεια της νύχτας. Κατά τη διάρκεια της νύχτας, η εικόνα δεν είναι σκοτεινή μιας και η υπέρυθρη ακτινοβολία μπορεί να εντοπίσει τις διαφορές στη θερμοκρασία. Δυστυχώς, είναι δύσκολο να ξεχωρίσουν οι χαμηλές νεφώσεις και η ομίχλη από τις θερμοκρασίες εδάφους και έτσι μπορεί να είναι σχετικά αόρατα κατά τη διάρκεια της νύχτας. Οι εικόνες από τον δορυφόρο Meteosat για την Ευρώπη ενημερώνονται σε πραγματικό χρόνο κάθε 5 λεπτά. Οι εικόνες από τους δορυφόρους GOES-16/GOES-17 (Βόρεια & Λατινική Αμερική) και Himawari (Ασία) ενημερώνονται κάθε 10 λεπτά.

Πνευματική ιδιοκτησία 2021 EUMETSAT / meteoblue. / Πνευματική ιδιοκτησία 2021 meteoblue

Ραντάρ και πρόγνωση υετού μικρής δειάρκειας για 51.02°Β 71.47°Α

Ψιλοβρέχει
Φως
Μέτρια
Βαριά
Πολύ βαρύ
Χαλάζι

Ο δείκτης θέσης τοποθετείται στο 51.02°Β 71.47°Α. Αυτή η κινούμενη εικόνα δείχνει την ραντάρ βροχόπτωσης για την τελευταία ώρα, καθώς και 1πρόγνωση h. Το ψιλόβροχο ή το ελαφρύ χιόνι μπορεί να είναι αόρατο για το ραντάρ. Η ένταση της βροχόπτωσης είναι χρωματικά κωδικοποιημένη και κυμαίνεται από γαλάζιο έως πορτοκαλί.